aviador You're here:

KAOO Decoded Metar

ALTOONA in PA, USA
Report Time2018-05-23 16:19:00
UTC Time2018-05-23 16:27:23
Flight Rules vfr VFR
Wind300° at 09 kt
W.Decomp.*RWY 30: 8.9 kt HW 1.6 kt RCW
RWY 03: 1.6 kt HW 8.9 kt LCW
W.Rank300° ranks 1
Current wind is below 300° avg. (9.4)
Visibility9999 m
Phenomena:N/A
Clouds:Scattered 023 Hf
Scattered 030 Hf
Expected CloudBase > 2,800 ft AGL from Temp-Dew spread
CeilingNone
Temp20°C (ISA +8)
Dew Point13°C (64% RH)
AAT17.7°C
QNH1020 hPa
Density Alt2,392 ft
Elevation1,493 ft
Report Wrong Elevation
Raw Report
KAOO 231619Z AUTO 30009KT 10SM SCT023 SCT030 20/13 A3012 RMK AO2
T02000133=

Extra information for KAOO:More info

Metar Taf Metar & Taf Last 4 Metars F.Rules Stats Wind Profile Meteogram Temp Stats Airport Information Weather charts Add Link Nearby VenuesMetar ALERT Operation Metar Decoded Social comments

AIRNAV info for KAOO